Time;durP1;ratioP1;P1;durP2;ratioP2;P2;SDS_P1;SDS_P2;PMS_P1;PMS_P2;Temp;Humidity;BMP_temperature;BMP_pressure;BME280_temperature;BME280_humidity;BME280_pressure;Samples;Min_cycle;Max_cycle;Signal;HPM_P1;HPM_P2
2022/11/20 00:00:04;;;;;;;20.80;12.90;;;4.70;99.90;;;;;;5095942;28;20028;-68
2022/11/20 00:02:29;;;;;;;21.55;13.52;;;4.80;99.90;;;;;;5094436;28;20383;-69
2022/11/20 00:04:55;;;;;;;22.25;12.88;;;4.80;99.90;;;;;;5094037;28;20028;-68
2022/11/20 00:07:21;;;;;;;22.70;13.88;;;4.70;99.90;;;;;;5092132;28;20038;-69
2022/11/20 00:09:46;;;;;;;21.83;13.45;;;4.60;99.90;;;;;;5075944;28;20079;-68
2022/11/20 00:12:12;;;;;;;24.15;13.88;;;4.60;99.90;;;;;;5096153;28;20031;-68
2022/11/20 00:14:38;;;;;;;21.65;14.05;;;4.60;99.90;;;;;;5093361;28;20028;-68
2022/11/20 00:17:04;;;;;;;22.15;13.05;;;4.60;99.90;;;;;;5091373;28;20073;-68
2022/11/20 00:19:30;;;;;;;22.75;12.40;;;4.60;99.90;;;;;;5058284;28;1106022;-68
2022/11/20 00:21:55;;;;;;;25.42;13.82;;;4.70;99.90;;;;;;5094437;28;20544;-69
2022/11/20 00:24:21;;;;;;;22.25;13.02;;;4.60;99.90;;;;;;5097059;28;20027;-68
2022/11/20 00:26:47;;;;;;;21.05;13.10;;;4.60;99.90;;;;;;5091608;28;20099;-68
2022/11/20 00:29:12;;;;;;;22.55;13.45;;;4.60;99.90;;;;;;5096177;28;20055;-68
2022/11/20 00:31:38;;;;;;;25.35;13.85;;;4.60;99.90;;;;;;5096027;28;20023;-68
2022/11/20 00:34:04;;;;;;;23.77;13.63;;;4.60;99.90;;;;;;5095280;28;20080;-68
2022/11/20 00:36:33;;;;;;;24.67;13.73;;;4.70;99.90;;;;;;5095413;28;20031;-68
2022/11/20 00:38:58;;;;;;;22.70;13.70;;;4.60;99.90;;;;;;5095796;28;20036;-68
2022/11/20 00:41:25;;;;;;;20.85;13.57;;;4.70;99.90;;;;;;5078112;28;20047;-68
2022/11/20 00:43:55;;;;;;;21.23;13.73;;;4.60;99.90;;;;;;5092753;28;20031;-68
2022/11/20 00:46:22;;;;;;;21.23;14.02;;;4.60;99.90;;;;;;5094925;28;20024;-68
2022/11/20 00:48:49;;;;;;;21.65;13.35;;;4.50;99.90;;;;;;5093577;28;20028;-68
2022/11/20 00:51:16;;;;;;;21.80;13.68;;;4.50;99.90;;;;;;5095210;28;20032;-68
2022/11/20 00:53:42;;;;;;;26.08;14.52;;;4.40;99.90;;;;;;5092835;28;20080;-68
2022/11/20 00:56:11;;;;;;;24.60;13.75;;;4.40;99.90;;;;;;5091321;28;20036;-68
2022/11/20 00:58:39;;;;;;;24.60;14.75;;;4.40;99.90;;;;;;5077918;28;20093;-68
2022/11/20 01:01:11;;;;;;;25.05;14.27;;;4.50;99.90;;;;;;5096141;28;20513;-68
2022/11/20 01:03:39;;;;;;;25.35;14.13;;;4.20;99.90;;;;;;5069729;28;20074;-69
2022/11/20 01:06:07;;;;;;;22.77;14.07;;;3.90;99.90;;;;;;5090291;28;20492;-68
2022/11/20 01:08:34;;;;;;;22.88;13.55;;;3.90;99.90;;;;;;5096190;28;20076;-68
2022/11/20 01:11:09;;;;;;;23.08;13.75;;;3.90;99.90;;;;;;5096817;28;20047;-67
2022/11/20 01:13:38;;;;;;;26.98;14.80;;;3.80;99.90;;;;;;5096182;28;20024;-68
2022/11/20 01:16:04;;;;;;;28.35;14.98;;;3.90;99.90;;;;;;5095117;28;20023;-68
2022/11/20 01:18:30;;;;;;;25.75;14.88;;;4.00;99.90;;;;;;5096266;28;20032;-69
2022/11/20 01:20:59;;;;;;;24.27;13.57;;;4.00;99.90;;;;;;5104438;28;20499;-68
2022/11/20 01:23:25;;;;;;;23.63;13.43;;;3.90;99.90;;;;;;5103819;28;20039;-68
2022/11/20 01:25:50;;;;;;;24.42;13.30;;;3.90;99.90;;;;;;5096718;28;20030;-67
2022/11/20 01:28:16;;;;;;;22.05;13.35;;;4.00;99.90;;;;;;5112798;28;20031;-67
2022/11/20 01:30:42;;;;;;;24.73;13.88;;;3.90;99.90;;;;;;5106691;28;20374;-67
2022/11/20 01:33:07;;;;;;;22.45;13.18;;;3.70;99.90;;;;;;5107502;28;20023;-67
2022/11/20 01:35:33;;;;;;;19.65;12.38;;;3.70;99.90;;;;;;5104981;28;20023;-67
2022/11/20 01:37:59;;;;;;;23.52;13.48;;;3.80;99.90;;;;;;5110360;28;20027;-67
2022/11/20 01:40:24;;;;;;;24.17;13.13;;;3.70;99.90;;;;;;5106825;28;20085;-68
2022/11/20 01:46:04;;;;;;;26.25;13.30;;;3.60;99.90;;;;;;5104720;28;20038;-68
2022/11/20 01:48:55;;;;;;;28.63;14.57;;;3.70;99.90;;;;;;5104374;28;20018;-68
2022/11/20 01:51:34;;;;;;;23.35;13.13;;;3.70;99.90;;;;;;5109776;28;20041;-68
2022/11/20 01:54:05;;;;;;;24.83;15.73;;;3.70;99.90;;;;;;5107639;28;20507;-68
2022/11/20 01:56:38;;;;;;;23.15;15.02;;;3.50;99.90;;;;;;5107644;28;20023;-68
2022/11/20 01:59:06;;;;;;;25.50;14.90;;;3.50;99.90;;;;;;5105909;28;20067;-68
2022/11/20 02:01:33;;;;;;;25.15;14.30;;;3.50;99.90;;;;;;5112065;28;20019;-68
2022/11/20 02:03:59;;;;;;;25.02;14.70;;;3.60;99.90;;;;;;5106379;28;20890;-68
2022/11/20 02:06:34;;;;;;;26.75;14.95;;;3.70;99.90;;;;;;5104476;28;20026;-68
2022/11/20 02:09:00;;;;;;;25.17;14.38;;;3.80;99.90;;;;;;5102559;28;20030;-68
2022/11/20 02:11:26;;;;;;;25.10;14.40;;;3.70;99.90;;;;;;5107583;28;20024;-68
2022/11/20 02:13:51;;;;;;;25.35;14.38;;;3.80;99.90;;;;;;5106855;28;20031;-68
2022/11/20 02:16:25;;;;;;;26.60;14.10;;;3.80;99.90;;;;;;5110244;28;20020;-68
2022/11/20 02:18:53;;;;;;;25.55;14.18;;;3.90;99.90;;;;;;5110842;28;20062;-68
2022/11/20 02:21:40;;;;;;;23.05;13.93;;;3.80;99.90;;;;;;5105211;28;20047;-68
2022/11/20 02:24:14;;;;;;;24.92;14.00;;;3.80;99.90;;;;;;5109743;28;20031;-68
2022/11/20 02:26:51;;;;;;;28.23;15.13;;;3.80;99.90;;;;;;5103789;28;20026;-68
2022/11/20 02:29:26;;;;;;;24.33;14.80;;;3.90;99.90;;;;;;5108169;28;20035;-68
2022/11/20 02:31:55;;;;;;;29.00;14.73;;;4.00;99.90;;;;;;5098887;28;20035;-68
2022/11/20 02:34:20;;;;;;;27.95;15.32;;;4.00;99.90;;;;;;5104091;28;20389;-68
2022/11/20 02:36:47;;;;;;;27.95;15.88;;;4.00;99.90;;;;;;5107652;28;20035;-68
2022/11/20 02:39:16;;;;;;;27.33;14.77;;;4.10;99.90;;;;;;5109154;28;20042;-68
2022/11/20 02:41:42;;;;;;;24.42;15.27;;;4.10;99.90;;;;;;5110086;28;20246;-68
2022/11/20 02:44:08;;;;;;;23.00;14.98;;;4.10;99.90;;;;;;5105546;28;20036;-68
2022/11/20 02:46:34;;;;;;;24.23;15.07;;;4.10;99.90;;;;;;5104819;28;20022;-68
2022/11/20 02:49:02;;;;;;;24.50;14.52;;;4.00;99.90;;;;;;5108673;28;20391;-68
2022/11/20 02:51:28;;;;;;;25.80;14.40;;;4.10;99.90;;;;;;5088443;28;20031;-68
2022/11/20 02:53:54;;;;;;;24.23;14.45;;;4.10;99.90;;;;;;5110213;28;20027;-68
2022/11/20 02:56:20;;;;;;;26.73;13.85;;;4.00;99.90;;;;;;5098900;28;20468;-68
2022/11/20 02:58:46;;;;;;;24.33;13.43;;;4.00;99.90;;;;;;5105926;28;20040;-68
2022/11/20 03:01:11;;;;;;;24.77;13.68;;;4.10;99.90;;;;;;5106354;28;20031;-68
2022/11/20 03:03:37;;;;;;;23.20;13.68;;;4.10;99.90;;;;;;5106444;28;20032;-68
2022/11/20 03:06:03;;;;;;;25.15;15.02;;;4.10;99.90;;;;;;5105323;28;20053;-68
2022/11/20 03:08:28;;;;;;;25.30;15.40;;;4.10;99.90;;;;;;5106718;28;20019;-68
2022/11/20 03:10:54;;;;;;;24.65;15.52;;;4.10;99.90;;;;;;5106262;28;20065;-68
2022/11/20 03:13:20;;;;;;;25.80;15.45;;;4.20;99.90;;;;;;5107859;28;20047;-68
2022/11/20 03:15:45;;;;;;;26.20;15.10;;;4.20;99.90;;;;;;5088697;28;20020;-68
2022/11/20 03:18:13;;;;;;;25.02;14.93;;;4.20;99.90;;;;;;5103920;28;20072;-68
2022/11/20 03:20:39;;;;;;;22.10;13.50;;;4.20;99.90;;;;;;5105603;28;20057;-68
2022/11/20 03:23:04;;;;;;;26.65;15.15;;;4.10;99.90;;;;;;5105578;28;20496;-68
2022/11/20 03:25:30;;;;;;;20.73;13.55;;;3.90;99.90;;;;;;5101909;28;20031;-68
2022/11/20 03:27:56;;;;;;;22.55;14.43;;;3.90;99.90;;;;;;5103312;28;20062;-68
2022/11/20 03:30:21;;;;;;;27.27;15.88;;;4.00;99.90;;;;;;5106077;28;20055;-68
2022/11/20 03:32:47;;;;;;;27.27;14.77;;;4.00;99.90;;;;;;5105175;28;20032;-68
2022/11/20 03:35:13;;;;;;;24.48;14.35;;;4.00;99.90;;;;;;5107845;28;20024;-68
2022/11/20 03:37:39;;;;;;;24.75;14.35;;;4.10;99.90;;;;;;5098533;28;20028;-68
2022/11/20 03:40:05;;;;;;;28.70;14.38;;;4.00;99.90;;;;;;5089203;28;20077;-69
2022/11/20 03:42:46;;;;;;;26.10;14.68;;;4.10;99.90;;;;;;5102344;28;20024;-68
2022/11/20 03:45:14;;;;;;;25.90;15.73;;;4.10;99.90;;;;;;5095413;28;20034;-68
2022/11/20 03:47:40;;;;;;;25.27;14.82;;;4.00;99.90;;;;;;5103820;28;20054;-68
2022/11/20 03:50:06;;;;;;;26.17;15.65;;;3.90;99.90;;;;;;5104427;28;20974;-68
2022/11/20 03:52:32;;;;;;;25.35;14.98;;;3.80;99.90;;;;;;5109953;28;20479;-68
2022/11/20 03:54:57;;;;;;;23.50;14.13;;;3.80;99.90;;;;;;5105193;28;20023;-68
2022/11/20 03:57:23;;;;;;;24.83;15.70;;;3.90;99.90;;;;;;5101431;28;20031;-68
2022/11/20 03:59:48;;;;;;;24.40;15.25;;;4.00;99.90;;;;;;5108681;28;20027;-68
2022/11/20 04:02:14;;;;;;;28.70;16.50;;;4.00;99.90;;;;;;5104362;28;20024;-68
2022/11/20 04:04:40;;;;;;;26.85;15.75;;;4.10;99.90;;;;;;5087112;28;20068;-68
2022/11/20 04:07:05;;;;;;;24.77;14.15;;;4.10;99.90;;;;;;5100533;28;20064;-68
2022/11/20 04:09:31;;;;;;;26.13;14.95;;;4.20;99.90;;;;;;5105945;28;20027;-68
2022/11/20 04:11:56;;;;;;;26.38;15.48;;;4.10;99.90;;;;;;5105307;28;20510;-68
2022/11/20 04:14:22;;;;;;;26.92;15.25;;;4.00;99.90;;;;;;5105524;28;20054;-68
2022/11/20 04:16:48;;;;;;;25.58;15.35;;;4.10;99.90;;;;;;5104021;28;20076;-69
2022/11/20 04:19:15;;;;;;;29.17;15.32;;;4.20;99.90;;;;;;5110488;28;20499;-68
2022/11/20 04:21:42;;;;;;;25.13;15.13;;;4.10;99.90;;;;;;5088641;28;20093;-68
2022/11/20 04:24:08;;;;;;;24.10;14.63;;;4.00;99.90;;;;;;5101816;28;20039;-68
2022/11/20 04:26:34;;;;;;;25.70;15.25;;;4.20;99.90;;;;;;5103881;28;20024;-68
2022/11/20 04:29:01;;;;;;;27.17;16.15;;;4.20;99.90;;;;;;5109395;28;20047;-68
2022/11/20 04:31:33;;;;;;;25.67;15.55;;;4.20;99.90;;;;;;5101903;28;20677;-69
2022/11/20 04:34:06;;;;;;;25.60;15.55;;;4.20;99.90;;;;;;5105109;28;20022;-68
2022/11/20 04:36:33;;;;;;;27.08;16.08;;;4.20;99.90;;;;;;5106745;28;20036;-68
2022/11/20 04:39:04;;;;;;;25.17;15.50;;;4.30;99.90;;;;;;5106014;28;20028;-68
2022/11/20 04:41:33;;;;;;;25.15;15.20;;;4.10;99.90;;;;;;5106300;28;20054;-68
2022/11/20 04:44:02;;;;;;;27.25;15.82;;;4.20;99.90;;;;;;5104233;28;20573;-68
2022/11/20 04:46:33;;;;;;;29.73;16.38;;;4.10;99.90;;;;;;5102586;28;20024;-68
2022/11/20 04:48:59;;;;;;;26.08;15.98;;;4.20;99.90;;;;;;5105104;28;20062;-68
2022/11/20 04:51:25;;;;;;;27.13;16.67;;;4.10;99.90;;;;;;5104111;28;20032;-68
2022/11/20 04:53:51;;;;;;;26.98;15.43;;;4.00;99.90;;;;;;5106560;28;20046;-68
2022/11/20 04:56:17;;;;;;;26.05;15.85;;;4.10;99.90;;;;;;5106276;28;20019;-68
2022/11/20 04:58:43;;;;;;;26.67;16.27;;;4.10;99.90;;;;;;5106583;28;20032;-68
2022/11/20 05:01:14;;;;;;;27.25;16.80;;;4.00;99.90;;;;;;5111344;28;20024;-68
2022/11/20 05:03:41;;;;;;;28.55;16.45;;;4.00;99.90;;;;;;5111369;28;20475;-68
2022/11/20 05:06:07;;;;;;;28.73;16.50;;;4.00;99.90;;;;;;5107948;28;20115;-68
2022/11/20 05:08:33;;;;;;;27.02;15.77;;;4.10;99.90;;;;;;5108170;28;20103;-68
2022/11/20 05:11:10;;;;;;;29.80;17.25;;;4.10;99.90;;;;;;5102631;28;20054;-68
2022/11/20 05:13:36;;;;;;;29.95;16.13;;;4.20;99.90;;;;;;5107930;28;20353;-68
2022/11/20 05:16:03;;;;;;;26.23;15.77;;;4.20;99.90;;;;;;5105470;28;20091;-68
2022/11/20 05:18:29;;;;;;;32.28;17.58;;;4.30;99.90;;;;;;5102134;28;20039;-68
2022/11/20 05:20:56;;;;;;;29.40;17.70;;;4.20;99.90;;;;;;5101566;28;20044;-68
2022/11/20 05:23:22;;;;;;;31.25;18.35;;;4.20;99.90;;;;;;5110252;28;20055;-68
2022/11/20 05:25:47;;;;;;;25.38;15.18;;;4.20;99.90;;;;;;5103040;28;20059;-69
2022/11/20 05:28:13;;;;;;;27.60;16.52;;;4.30;99.90;;;;;;5105244;28;20020;-68
2022/11/20 05:30:39;;;;;;;26.25;16.00;;;4.30;99.90;;;;;;5114495;28;20016;-68
2022/11/20 05:33:05;;;;;;;25.20;15.70;;;4.30;99.90;;;;;;5109609;28;20015;-68
2022/11/20 05:35:30;;;;;;;25.77;16.10;;;4.30;99.90;;;;;;5108455;28;20035;-68
2022/11/20 05:37:56;;;;;;;26.65;16.42;;;4.30;99.90;;;;;;5106816;28;20358;-68
2022/11/20 05:40:22;;;;;;;28.00;15.75;;;4.40;99.90;;;;;;5111324;28;20110;-68
2022/11/20 05:42:47;;;;;;;27.27;17.15;;;4.30;99.90;;;;;;5103595;28;20035;-68
2022/11/20 05:45:13;;;;;;;24.90;15.50;;;4.40;99.90;;;;;;5108596;28;20023;-68
2022/11/20 05:47:38;;;;;;;26.38;15.30;;;4.30;99.90;;;;;;5105480;28;20531;-68
2022/11/20 05:50:05;;;;;;;25.70;14.77;;;4.20;99.90;;;;;;5105161;28;20361;-68
2022/11/20 05:52:30;;;;;;;26.45;16.10;;;4.10;99.90;;;;;;5109905;28;20061;-68
2022/11/20 05:54:56;;;;;;;27.25;16.45;;;4.20;99.90;;;;;;5100913;28;20029;-68
2022/11/20 05:57:22;;;;;;;26.45;16.42;;;4.10;99.90;;;;;;5107142;28;20035;-68
2022/11/20 05:59:48;;;;;;;31.90;16.60;;;4.20;99.90;;;;;;5097560;28;20535;-68
2022/11/20 06:02:13;;;;;;;26.98;16.13;;;4.20;99.90;;;;;;5111193;28;20036;-68
2022/11/20 06:04:39;;;;;;;28.48;16.08;;;4.30;99.90;;;;;;5105386;28;20058;-68
2022/11/20 06:07:05;;;;;;;27.10;15.90;;;4.40;99.90;;;;;;5104434;28;20028;-68
2022/11/20 06:09:31;;;;;;;26.40;15.85;;;4.30;99.90;;;;;;5102080;28;20024;-69
2022/11/20 06:11:57;;;;;;;26.35;16.75;;;4.30;99.90;;;;;;5102788;28;20023;-68
2022/11/20 06:14:23;;;;;;;28.17;16.38;;;4.30;99.90;;;;;;5092886;28;20031;-68
2022/11/20 06:16:48;;;;;;;29.52;17.50;;;4.40;99.90;;;;;;5091887;28;20016;-68
2022/11/20 06:19:15;;;;;;;29.13;17.13;;;4.50;99.90;;;;;;5103843;28;20522;-68
2022/11/20 06:21:40;;;;;;;28.90;17.70;;;4.50;99.90;;;;;;5107773;28;20032;-68
2022/11/20 06:24:08;;;;;;;29.67;18.45;;;4.40;99.90;;;;;;5104541;28;20499;-68
2022/11/20 06:26:34;;;;;;;29.05;18.15;;;4.40;99.90;;;;;;5097188;28;20111;-67
2022/11/20 06:28:59;;;;;;;29.52;16.88;;;4.30;99.90;;;;;;5106144;28;20571;-68
2022/11/20 06:31:26;;;;;;;31.77;17.90;;;4.30;99.90;;;;;;5105692;28;20391;-68
2022/11/20 06:33:52;;;;;;;27.35;15.73;;;4.30;99.90;;;;;;5085838;28;20027;-68
2022/11/20 06:36:20;;;;;;;31.65;17.95;;;4.30;99.90;;;;;;5106501;28;20020;-68
2022/11/20 06:38:46;;;;;;;29.70;18.30;;;4.30;99.90;;;;;;5105996;28;20032;-68
2022/11/20 06:41:14;;;;;;;29.42;17.92;;;4.30;99.90;;;;;;5107878;28;20433;-68
2022/11/20 06:43:40;;;;;;;32.22;16.63;;;4.30;99.90;;;;;;5105057;28;20016;-68
2022/11/20 06:46:06;;;;;;;29.27;16.38;;;4.30;99.90;;;;;;5106204;28;21010;-68
2022/11/20 06:48:32;;;;;;;29.65;17.30;;;4.20;99.90;;;;;;5107243;28;20012;-68
2022/11/20 06:50:59;;;;;;;32.42;17.35;;;4.30;99.90;;;;;;5102313;28;20028;-67
2022/11/20 06:53:24;;;;;;;31.98;18.95;;;4.30;99.90;;;;;;5110022;28;20027;-67
2022/11/20 06:55:51;;;;;;;31.23;18.30;;;4.40;99.90;;;;;;5108135;28;20028;-68
2022/11/20 06:58:18;;;;;;;28.00;17.48;;;4.40;99.90;;;;;;5104485;28;20020;-68
2022/11/20 07:00:44;;;;;;;33.13;18.55;;;4.30;99.90;;;;;;5106535;28;20031;-68
2022/11/20 07:03:11;;;;;;;32.55;18.92;;;4.40;99.90;;;;;;5106331;28;20074;-68
2022/11/20 07:05:38;;;;;;;32.63;18.35;;;4.40;99.90;;;;;;5103794;28;20070;-68
2022/11/20 07:08:04;;;;;;;27.50;17.13;;;4.40;99.90;;;;;;5102616;28;20023;-68
2022/11/20 07:10:30;;;;;;;29.92;16.92;;;4.30;99.90;;;;;;5110930;28;20034;-68
2022/11/20 07:12:56;;;;;;;30.08;17.60;;;4.10;99.90;;;;;;5111163;28;20028;-68
2022/11/20 07:15:24;;;;;;;30.73;17.40;;;4.20;99.90;;;;;;5105068;28;20028;-68
2022/11/20 07:17:50;;;;;;;34.67;18.45;;;4.30;99.90;;;;;;5103246;28;20031;-68
2022/11/20 07:20:16;;;;;;;31.95;18.30;;;4.20;99.90;;;;;;5109498;28;20396;-68
2022/11/20 07:22:42;;;;;;;33.03;18.67;;;4.20;99.90;;;;;;5103122;28;20034;-68
2022/11/20 07:25:09;;;;;;;30.88;18.23;;;4.20;99.90;;;;;;5109017;28;20031;-68
2022/11/20 07:27:35;;;;;;;34.47;19.17;;;4.30;99.90;;;;;;5104096;28;20027;-68
2022/11/20 07:30:01;;;;;;;34.92;19.45;;;4.20;99.90;;;;;;5105551;28;20437;-68
2022/11/20 07:32:27;;;;;;;33.67;19.55;;;4.30;99.90;;;;;;5108778;28;20027;-68
2022/11/20 07:34:53;;;;;;;31.33;19.08;;;4.30;99.90;;;;;;5105356;28;20039;-68
2022/11/20 07:37:18;;;;;;;34.05;20.35;;;4.30;99.90;;;;;;5104120;28;20024;-68
2022/11/20 07:39:44;;;;;;;32.22;18.80;;;4.30;99.90;;;;;;5101505;28;20032;-68
2022/11/20 07:42:11;;;;;;;35.30;20.75;;;4.30;99.90;;;;;;5105567;28;20070;-68
2022/11/20 07:44:37;;;;;;;36.22;21.05;;;4.40;99.90;;;;;;5101113;28;20067;-68
2022/11/20 07:47:03;;;;;;;39.50;21.77;;;4.40;99.90;;;;;;5102815;28;20052;-68
2022/11/20 07:49:29;;;;;;;38.15;21.65;;;4.50;99.90;;;;;;5105658;28;20035;-68
2022/11/20 07:51:54;;;;;;;40.38;21.75;;;4.50;99.90;;;;;;5105907;28;20035;-67
2022/11/20 07:54:20;;;;;;;43.13;21.25;;;4.50;99.90;;;;;;5105802;28;20077;-68
2022/11/20 07:56:47;;;;;;;44.78;21.45;;;4.50;99.90;;;;;;5099479;28;20023;-68
2022/11/20 07:59:13;;;;;;;42.63;21.15;;;4.40;99.90;;;;;;5104803;28;20024;-68
2022/11/20 08:01:39;;;;;;;56.13;22.80;;;4.50;99.90;;;;;;5104810;28;20020;-67
2022/11/20 08:04:05;;;;;;;45.97;21.63;;;4.50;99.90;;;;;;5104998;28;20507;-67
2022/11/20 08:06:31;;;;;;;48.67;22.17;;;4.40;99.90;;;;;;5101943;28;20031;-67
2022/11/20 08:08:56;;;;;;;62.60;29.05;;;4.50;99.90;;;;;;5103975;28;20031;-67
2022/11/20 08:14:14;;;;;;;60.55;25.30;;;4.40;99.90;;;;;;5087422;28;20499;-67
2022/11/20 08:16:47;;;;;;;58.05;25.42;;;4.60;99.90;;;;;;5085081;28;20130;-67
2022/11/20 08:19:15;;;;;;;66.88;28.42;;;4.60;99.90;;;;;;5106190;28;20051;-67
2022/11/20 08:21:41;;;;;;;54.97;25.80;;;4.70;99.90;;;;;;5109052;28;20034;-67
2022/11/20 08:24:07;;;;;;;75.25;30.70;;;4.70;99.90;;;;;;5104982;28;20040;-67
2022/11/20 08:26:33;;;;;;;73.90;30.38;;;4.60;99.90;;;;;;5104875;28;20016;-67
2022/11/20 08:28:59;;;;;;;78.45;34.33;;;4.70;99.90;;;;;;5107865;28;20106;-67
2022/11/20 08:31:26;;;;;;;83.82;37.20;;;4.70;99.90;;;;;;5105206;28;20145;-68
2022/11/20 08:33:52;;;;;;;87.75;37.67;;;4.80;99.90;;;;;;5108002;28;20035;-67
2022/11/20 08:36:19;;;;;;;83.93;36.45;;;4.80;99.90;;;;;;5110458;28;20026;-67
2022/11/20 08:38:49;;;;;;;84.28;35.03;;;4.90;99.90;;;;;;5107466;28;20063;-67
2022/11/20 08:41:24;;;;;;;76.32;33.08;;;4.90;99.90;;;;;;5108803;28;20032;-68
2022/11/20 08:44:10;;;;;;;78.95;32.17;;;4.90;99.90;;;;;;5103389;28;20026;-67
2022/11/20 08:46:45;;;;;;;72.32;32.30;;;4.80;99.90;;;;;;5105462;28;20431;-68
2022/11/20 08:49:12;;;;;;;83.95;31.85;;;4.70;99.90;;;;;;5111371;28;20115;-68
2022/11/20 08:51:38;;;;;;;78.93;33.60;;;4.90;99.90;;;;;;5112395;28;20035;-67
2022/11/20 08:54:05;;;;;;;81.20;33.53;;;4.90;99.90;;;;;;5110993;28;20476;-67
2022/11/20 08:56:31;;;;;;;76.95;31.42;;;4.90;99.90;;;;;;5108789;28;20020;-68
2022/11/20 08:58:59;;;;;;;78.95;34.17;;;5.00;99.90;;;;;;5103672;28;20075;-68
2022/11/20 09:01:25;;;;;;;78.07;33.25;;;5.10;99.90;;;;;;5105189;28;20052;-68
2022/11/20 09:03:51;;;;;;;74.68;33.38;;;5.00;99.90;;;;;;5103680;28;20028;-68
2022/11/20 09:06:17;;;;;;;72.85;32.67;;;5.00;99.90;;;;;;5110395;28;20027;-68
2022/11/20 09:08:43;;;;;;;71.15;30.77;;;5.00;99.90;;;;;;5108214;28;20016;-68
2022/11/20 09:11:10;;;;;;;66.25;28.65;;;5.10;99.90;;;;;;5105472;28;20055;-68
2022/11/20 09:13:36;;;;;;;64.00;28.73;;;5.10;99.90;;;;;;5111274;28;20098;-68
2022/11/20 09:16:05;;;;;;;69.85;29.25;;;5.00;99.90;;;;;;5106358;28;20027;-68
2022/11/20 09:18:32;;;;;;;61.45;28.65;;;5.10;99.90;;;;;;5109559;28;20060;-68
2022/11/20 09:21:02;;;;;;;64.72;28.83;;;5.20;99.90;;;;;;5109964;28;20345;-68
2022/11/20 09:23:32;;;;;;;64.47;29.33;;;5.30;99.90;;;;;;5090549;28;20122;-68
2022/11/20 09:25:59;;;;;;;50.65;26.63;;;5.40;99.90;;;;;;5090144;28;20032;-68
2022/11/20 09:28:25;;;;;;;51.90;26.52;;;5.40;99.90;;;;;;5108512;28;20027;-68
2022/11/20 09:30:51;;;;;;;59.47;28.17;;;5.40;99.90;;;;;;5108582;28;20507;-68
2022/11/20 09:33:17;;;;;;;57.10;27.27;;;5.50;99.90;;;;;;5105119;28;20023;-68
2022/11/20 09:35:44;;;;;;;55.03;27.40;;;5.40;99.90;;;;;;5106352;28;20488;-68
2022/11/20 09:38:10;;;;;;;50.03;26.15;;;5.40;99.90;;;;;;5099113;28;20026;-68
2022/11/20 09:40:40;;;;;;;56.88;26.35;;;5.40;99.90;;;;;;5107611;28;20023;-68
2022/11/20 09:43:11;;;;;;;58.35;27.77;;;5.40;99.90;;;;;;5109283;28;20016;-68
2022/11/20 09:45:57;;;;;;;52.83;25.77;;;5.50;99.90;;;;;;5105831;28;20040;-68
2022/11/20 09:48:42;;;;;;;62.00;26.48;;;5.60;99.90;;;;;;5107924;28;20031;-68
2022/11/20 09:51:28;;;;;;;58.75;27.65;;;5.70;99.90;;;;;;5109763;28;20477;-68
2022/11/20 09:53:53;;;;;;;58.92;28.63;;;5.60;99.90;;;;;;5108485;28;20420;-68
2022/11/20 09:56:20;;;;;;;61.20;28.90;;;5.60;99.90;;;;;;5110089;28;20026;-69
2022/11/20 09:58:50;;;;;;;60.42;28.77;;;5.70;99.90;;;;;;5110433;28;20472;-68
2022/11/20 10:01:22;;;;;;;60.72;27.15;;;5.70;99.90;;;;;;5107716;28;20551;-68
2022/11/20 10:03:50;;;;;;;55.38;26.65;;;5.80;99.90;;;;;;5105730;28;20100;-68
2022/11/20 10:06:18;;;;;;;56.70;26.80;;;5.80;99.90;;;;;;5107649;28;20031;-68
2022/11/20 10:09:27;;;;;;;61.13;28.42;;;5.90;99.90;;;;;;5104506;28;20031;-68
2022/11/20 10:12:05;;;;;;;59.35;27.30;;;5.80;99.90;;;;;;5065194;28;20072;-68
2022/11/20 10:14:52;;;;;;;64.80;29.15;;;5.90;99.90;;;;;;5086101;28;20042;-68
2022/11/20 10:17:33;;;;;;;59.65;28.75;;;5.80;99.90;;;;;;5107708;28;20031;-68
2022/11/20 10:20:23;;;;;;;59.30;29.20;;;5.80;99.90;;;;;;5105193;28;20145;-68
2022/11/20 10:22:53;;;;;;;65.68;30.13;;;5.90;99.90;;;;;;5097908;28;20027;-68
2022/11/20 10:25:21;;;;;;;62.80;29.75;;;5.80;99.90;;;;;;5104471;28;20028;-68
2022/11/20 10:27:53;;;;;;;65.68;30.73;;;6.00;99.90;;;;;;5102905;28;20091;-70
2022/11/20 10:30:21;;;;;;;64.33;29.97;;;6.00;99.90;;;;;;5102907;28;20066;-68
2022/11/20 10:32:54;;;;;;;68.55;31.00;;;5.90;99.90;;;;;;5103246;28;20051;-68
2022/11/20 10:35:45;;;;;;;66.97;29.58;;;6.00;99.90;;;;;;5102889;28;20095;-68
2022/11/20 10:38:40;;;;;;;67.18;29.17;;;6.00;99.90;;;;;;5061498;28;20086;-68
2022/11/20 10:41:24;;;;;;;65.63;27.90;;;6.00;99.90;;;;;;5105929;28;20086;-68
2022/11/20 10:44:03;;;;;;;63.30;28.80;;;5.90;99.90;;;;;;5108141;28;20028;-69
2022/11/20 10:46:43;;;;;;;76.22;30.10;;;6.00;99.90;;;;;;5100019;28;20027;-68
2022/11/20 10:49:19;;;;;;;71.22;31.55;;;6.10;99.90;;;;;;5103655;28;20028;-68
2022/11/20 10:52:10;;;;;;;70.60;29.55;;;6.20;99.90;;;;;;5099200;28;20055;-68
2022/11/20 10:54:38;;;;;;;74.18;30.42;;;6.30;99.90;;;;;;5102235;28;20020;-68
2022/11/20 10:57:14;;;;;;;73.15;30.42;;;6.20;99.90;;;;;;5102400;28;20024;-68
2022/11/20 10:59:59;;;;;;;68.40;30.35;;;6.30;99.90;;;;;;5106471;28;20047;-68
2022/11/20 11:02:38;;;;;;;69.72;29.75;;;6.30;99.90;;;;;;5068268;28;20572;-68
2022/11/20 11:05:22;;;;;;;67.70;29.58;;;6.30;99.90;;;;;;5092378;28;20035;-68
2022/11/20 11:07:52;;;;;;;63.95;28.27;;;6.30;99.90;;;;;;5094837;28;20015;-68
2022/11/20 11:10:24;;;;;;;64.95;29.15;;;6.30;99.90;;;;;;5099062;28;20011;-68
2022/11/20 11:12:49;;;;;;;72.05;30.15;;;6.20;99.90;;;;;;5096588;28;20101;-68
2022/11/20 11:15:28;;;;;;;66.82;28.42;;;6.20;99.90;;;;;;5080806;28;20464;-68
2022/11/20 11:17:54;;;;;;;62.38;28.55;;;6.20;99.90;;;;;;5097526;28;20031;-68
2022/11/20 11:20:23;;;;;;;64.25;28.17;;;6.20;99.90;;;;;;5099393;28;20040;-68
2022/11/20 11:22:54;;;;;;;71.43;29.90;;;6.30;99.90;;;;;;5095758;28;20020;-69
2022/11/20 11:25:20;;;;;;;61.78;29.02;;;6.40;99.90;;;;;;5095673;28;20028;-69
2022/11/20 11:27:48;;;;;;;60.67;27.00;;;6.40;99.90;;;;;;5097584;28;20028;-69
2022/11/20 11:30:18;;;;;;;64.88;28.42;;;6.40;99.90;;;;;;5093592;28;20050;-68
2022/11/20 11:32:45;;;;;;;60.97;27.10;;;6.40;99.90;;;;;;5095932;28;20384;-68
2022/11/20 11:35:26;;;;;;;63.05;27.75;;;6.50;99.90;;;;;;5078848;28;20027;-68
2022/11/20 11:38:01;;;;;;;69.13;28.75;;;6.50;99.90;;;;;;5094702;28;20043;-68
2022/11/20 11:40:29;;;;;;;64.25;28.38;;;6.50;99.90;;;;;;5091559;28;20036;-68
2022/11/20 11:43:02;;;;;;;69.32;29.15;;;6.60;99.90;;;;;;5097285;28;20050;-68
2022/11/20 11:45:27;;;;;;;68.63;30.33;;;6.60;99.90;;;;;;5087857;28;20023;-68
2022/11/20 11:47:56;;;;;;;79.65;33.08;;;6.60;99.90;;;;;;5097142;28;20353;-70
2022/11/20 11:50:24;;;;;;;73.32;31.45;;;6.50;99.90;;;;;;5095124;28;20144;-68
2022/11/20 11:52:52;;;;;;;68.43;30.50;;;6.40;99.90;;;;;;5098123;28;20020;-68
2022/11/20 11:55:42;;;;;;;74.97;29.67;;;6.40;99.90;;;;;;5097702;28;20127;-68
2022/11/20 11:58:17;;;;;;;81.10;31.25;;;6.40;99.90;;;;;;5078719;28;20025;-68
2022/11/20 12:01:09;;;;;;;69.63;29.65;;;6.60;99.90;;;;;;5097723;28;20058;-68
2022/11/20 12:03:38;;;;;;;72.55;30.30;;;6.60;99.90;;;;;;5089518;28;20040;-68
2022/11/20 12:06:16;;;;;;;82.18;34.08;;;6.60;99.90;;;;;;5094533;28;20158;-69
2022/11/20 12:08:54;;;;;;;74.00;30.98;;;6.70;99.90;;;;;;5092551;28;20011;-69
2022/11/20 12:11:43;;;;;;;82.88;33.67;;;6.80;99.90;;;;;;5096311;28;20459;-68
2022/11/20 12:14:18;;;;;;;73.90;33.42;;;6.80;99.90;;;;;;5094585;28;20464;-68
2022/11/20 12:16:44;;;;;;;76.70;31.23;;;6.80;99.90;;;;;;5094315;28;20489;-69
2022/11/20 12:19:12;;;;;;;79.25;31.05;;;6.80;99.90;;;;;;5097357;28;20036;-69
2022/11/20 12:22:17;;;;;;;76.15;31.65;;;6.80;99.90;;;;;;5094206;28;20349;-69
2022/11/20 12:25:03;;;;;;;78.05;31.38;;;6.90;99.90;;;;;;5092549;28;20039;-70
2022/11/20 12:27:48;;;;;;;72.40;30.17;;;6.90;99.90;;;;;;5092765;28;20043;-68
2022/11/20 12:30:16;;;;;;;74.07;31.30;;;7.00;99.90;;;;;;5092620;28;20035;-69
2022/11/20 12:33:13;;;;;;;74.57;31.88;;;7.10;99.90;;;;;;5092441;28;20024;-69
2022/11/20 12:35:58;;;;;;;79.38;32.88;;;7.10;99.90;;;;;;5094780;28;20027;-69
2022/11/20 12:38:35;;;;;;;81.60;31.55;;;7.10;99.90;;;;;;5096371;28;20034;-69
2022/11/20 12:47:27;;;;;;;79.70;31.48;;;7.30;99.90;;;;;;5093363;28;20042;-69
2022/11/20 12:50:14;;;;;;;76.30;31.75;;;7.40;99.90;;;;;;5095177;28;20162;-69
2022/11/20 12:52:45;;;;;;;79.60;31.98;;;7.30;99.90;;;;;;5093592;28;20320;-68
2022/11/20 12:55:15;;;;;;;79.10;32.30;;;7.30;99.90;;;;;;5093332;28;20491;-69
2022/11/20 12:57:58;;;;;;;80.57;32.65;;;7.40;99.90;;;;;;5094278;28;20381;-69